sensor_id;sensor_type;location;lat;lon;timestamp;P1;durP1;ratioP1;P2;durP2;ratioP2
79308;SDS011;68767;53.078;7.386;2023-04-05T00:02:21;13.65;;;6.10;;
79308;SDS011;68767;53.078;7.386;2023-04-05T00:04:50;14.15;;;5.50;;
79308;SDS011;68767;53.078;7.386;2023-04-05T00:07:23;14.45;;;4.97;;
79308;SDS011;68767;53.078;7.386;2023-04-05T00:09:50;12.25;;;5.68;;
79308;SDS011;68767;53.078;7.386;2023-04-05T00:12:16;12.60;;;5.05;;
79308;SDS011;68767;53.078;7.386;2023-04-05T00:14:43;13.68;;;6.03;;
79308;SDS011;68767;53.078;7.386;2023-04-05T00:17:11;15.18;;;6.25;;
79308;SDS011;68767;53.078;7.386;2023-04-05T00:19:38;18.38;;;6.50;;
79308;SDS011;68767;53.078;7.386;2023-04-05T00:22:05;12.45;;;5.43;;
79308;SDS011;68767;53.078;7.386;2023-04-05T00:24:36;11.93;;;5.65;;
79308;SDS011;68767;53.078;7.386;2023-04-05T00:27:08;18.98;;;6.88;;
79308;SDS011;68767;53.078;7.386;2023-04-05T00:29:35;15.10;;;5.35;;
79308;SDS011;68767;53.078;7.386;2023-04-05T00:32:02;14.70;;;6.25;;
79308;SDS011;68767;53.078;7.386;2023-04-05T00:34:30;17.48;;;5.82;;
79308;SDS011;68767;53.078;7.386;2023-04-05T00:36:58;19.70;;;6.00;;
79308;SDS011;68767;53.078;7.386;2023-04-05T00:39:25;15.20;;;5.72;;
79308;SDS011;68767;53.078;7.386;2023-04-05T00:41:52;13.18;;;5.72;;
79308;SDS011;68767;53.078;7.386;2023-04-05T00:44:19;13.48;;;5.90;;
79308;SDS011;68767;53.078;7.386;2023-04-05T00:46:46;16.08;;;6.22;;
79308;SDS011;68767;53.078;7.386;2023-04-05T00:49:13;14.43;;;5.70;;
79308;SDS011;68767;53.078;7.386;2023-04-05T00:51:40;20.17;;;6.43;;
79308;SDS011;68767;53.078;7.386;2023-04-05T00:54:07;15.23;;;6.50;;
79308;SDS011;68767;53.078;7.386;2023-04-05T00:56:34;14.30;;;6.07;;
79308;SDS011;68767;53.078;7.386;2023-04-05T00:59:02;13.65;;;6.03;;
79308;SDS011;68767;53.078;7.386;2023-04-05T01:01:28;17.17;;;6.03;;
79308;SDS011;68767;53.078;7.386;2023-04-05T01:03:58;13.63;;;6.60;;
79308;SDS011;68767;53.078;7.386;2023-04-05T01:11:56;13.07;;;5.80;;
79308;SDS011;68767;53.078;7.386;2023-04-05T01:14:26;14.77;;;5.40;;
79308;SDS011;68767;53.078;7.386;2023-04-05T01:16:53;14.90;;;7.40;;
79308;SDS011;68767;53.078;7.386;2023-04-05T01:19:27;12.10;;;6.00;;
79308;SDS011;68767;53.078;7.386;2023-04-05T01:22:18;13.45;;;6.82;;
79308;SDS011;68767;53.078;7.386;2023-04-05T01:30:19;14.10;;;6.05;;
79308;SDS011;68767;53.078;7.386;2023-04-05T01:35:50;17.27;;;6.55;;
79308;SDS011;68767;53.078;7.386;2023-04-05T01:38:22;14.18;;;6.20;;
79308;SDS011;68767;53.078;7.386;2023-04-05T01:40:53;15.50;;;5.93;;
79308;SDS011;68767;53.078;7.386;2023-04-05T01:43:20;13.40;;;6.57;;
79308;SDS011;68767;53.078;7.386;2023-04-05T01:45:47;17.15;;;7.57;;
79308;SDS011;68767;53.078;7.386;2023-04-05T01:48:14;16.88;;;7.38;;
79308;SDS011;68767;53.078;7.386;2023-04-05T01:50:41;14.38;;;7.28;;
79308;SDS011;68767;53.078;7.386;2023-04-05T01:53:08;11.95;;;6.43;;
79308;SDS011;68767;53.078;7.386;2023-04-05T01:55:35;16.10;;;7.45;;
79308;SDS011;68767;53.078;7.386;2023-04-05T01:58:02;16.48;;;8.00;;
79308;SDS011;68767;53.078;7.386;2023-04-05T02:00:29;20.90;;;7.47;;
79308;SDS011;68767;53.078;7.386;2023-04-05T02:02:56;19.88;;;7.07;;
79308;SDS011;68767;53.078;7.386;2023-04-05T02:05:23;15.98;;;7.53;;
79308;SDS011;68767;53.078;7.386;2023-04-05T02:07:49;17.95;;;7.05;;
79308;SDS011;68767;53.078;7.386;2023-04-05T02:10:17;15.38;;;6.40;;
79308;SDS011;68767;53.078;7.386;2023-04-05T02:12:44;15.85;;;7.05;;
79308;SDS011;68767;53.078;7.386;2023-04-05T02:15:10;17.20;;;7.78;;
79308;SDS011;68767;53.078;7.386;2023-04-05T02:17:37;18.48;;;8.35;;
79308;SDS011;68767;53.078;7.386;2023-04-05T02:20:06;15.50;;;7.22;;
79308;SDS011;68767;53.078;7.386;2023-04-05T02:22:34;24.25;;;8.13;;
79308;SDS011;68767;53.078;7.386;2023-04-05T02:25:02;17.05;;;7.43;;
79308;SDS011;68767;53.078;7.386;2023-04-05T02:27:29;21.38;;;7.97;;
79308;SDS011;68767;53.078;7.386;2023-04-05T02:29:57;18.00;;;8.65;;
79308;SDS011;68767;53.078;7.386;2023-04-05T02:32:24;18.67;;;8.73;;
79308;SDS011;68767;53.078;7.386;2023-04-05T02:34:51;16.90;;;8.18;;
79308;SDS011;68767;53.078;7.386;2023-04-05T02:37:18;18.08;;;7.38;;
79308;SDS011;68767;53.078;7.386;2023-04-05T02:39:45;19.25;;;8.35;;
79308;SDS011;68767;53.078;7.386;2023-04-05T02:42:12;17.77;;;8.00;;
79308;SDS011;68767;53.078;7.386;2023-04-05T02:44:39;20.52;;;7.95;;
79308;SDS011;68767;53.078;7.386;2023-04-05T02:47:06;17.00;;;7.05;;
79308;SDS011;68767;53.078;7.386;2023-04-05T02:49:32;16.27;;;8.25;;
79308;SDS011;68767;53.078;7.386;2023-04-05T02:51:59;18.83;;;8.00;;
79308;SDS011;68767;53.078;7.386;2023-04-05T02:54:26;18.52;;;8.82;;
79308;SDS011;68767;53.078;7.386;2023-04-05T02:56:52;17.10;;;7.82;;
79308;SDS011;68767;53.078;7.386;2023-04-05T02:59:20;17.80;;;8.63;;
79308;SDS011;68767;53.078;7.386;2023-04-05T03:01:47;21.27;;;8.23;;
79308;SDS011;68767;53.078;7.386;2023-04-05T03:04:13;19.77;;;8.88;;
79308;SDS011;68767;53.078;7.386;2023-04-05T03:06:42;20.65;;;8.68;;
79308;SDS011;68767;53.078;7.386;2023-04-05T03:09:11;20.02;;;8.25;;
79308;SDS011;68767;53.078;7.386;2023-04-05T03:11:39;17.27;;;8.27;;
79308;SDS011;68767;53.078;7.386;2023-04-05T03:14:06;16.65;;;8.07;;
79308;SDS011;68767;53.078;7.386;2023-04-05T03:16:33;19.90;;;8.10;;
79308;SDS011;68767;53.078;7.386;2023-04-05T03:19:00;19.83;;;8.45;;
79308;SDS011;68767;53.078;7.386;2023-04-05T03:21:27;23.90;;;9.02;;
79308;SDS011;68767;53.078;7.386;2023-04-05T03:23:55;22.25;;;9.40;;
79308;SDS011;68767;53.078;7.386;2023-04-05T03:26:22;21.83;;;9.65;;
79308;SDS011;68767;53.078;7.386;2023-04-05T03:28:49;17.25;;;8.43;;
79308;SDS011;68767;53.078;7.386;2023-04-05T03:31:16;30.23;;;9.38;;
79308;SDS011;68767;53.078;7.386;2023-04-05T03:33:45;20.77;;;8.93;;
79308;SDS011;68767;53.078;7.386;2023-04-05T03:36:12;18.70;;;8.75;;
79308;SDS011;68767;53.078;7.386;2023-04-05T03:38:43;25.20;;;9.15;;
79308;SDS011;68767;53.078;7.386;2023-04-05T03:41:10;17.50;;;7.95;;
79308;SDS011;68767;53.078;7.386;2023-04-05T03:43:37;27.10;;;9.35;;
79308;SDS011;68767;53.078;7.386;2023-04-05T03:46:04;21.20;;;8.60;;
79308;SDS011;68767;53.078;7.386;2023-04-05T03:48:31;19.85;;;8.68;;
79308;SDS011;68767;53.078;7.386;2023-04-05T03:50:58;25.27;;;9.65;;
79308;SDS011;68767;53.078;7.386;2023-04-05T03:53:25;22.80;;;9.57;;
79308;SDS011;68767;53.078;7.386;2023-04-05T03:55:51;26.08;;;9.10;;
79308;SDS011;68767;53.078;7.386;2023-04-05T03:58:19;23.17;;;9.70;;
79308;SDS011;68767;53.078;7.386;2023-04-05T04:00:47;15.57;;;8.35;;
79308;SDS011;68767;53.078;7.386;2023-04-05T04:03:14;21.48;;;9.52;;
79308;SDS011;68767;53.078;7.386;2023-04-05T04:05:40;21.20;;;10.80;;
79308;SDS011;68767;53.078;7.386;2023-04-05T04:08:08;20.27;;;8.82;;
79308;SDS011;68767;53.078;7.386;2023-04-05T04:10:35;17.00;;;8.88;;
79308;SDS011;68767;53.078;7.386;2023-04-05T04:13:02;25.55;;;10.02;;
79308;SDS011;68767;53.078;7.386;2023-04-05T04:15:28;21.63;;;9.40;;
79308;SDS011;68767;53.078;7.386;2023-04-05T04:17:55;22.42;;;10.68;;
79308;SDS011;68767;53.078;7.386;2023-04-05T04:20:22;20.35;;;10.25;;
79308;SDS011;68767;53.078;7.386;2023-04-05T04:22:49;20.98;;;8.88;;
79308;SDS011;68767;53.078;7.386;2023-04-05T04:25:19;24.15;;;10.05;;
79308;SDS011;68767;53.078;7.386;2023-04-05T04:27:47;24.85;;;10.35;;
79308;SDS011;68767;53.078;7.386;2023-04-05T04:30:15;25.35;;;9.00;;
79308;SDS011;68767;53.078;7.386;2023-04-05T04:32:42;19.65;;;9.00;;
79308;SDS011;68767;53.078;7.386;2023-04-05T04:37:57;23.05;;;8.45;;
79308;SDS011;68767;53.078;7.386;2023-04-05T04:42:57;16.98;;;8.77;;
79308;SDS011;68767;53.078;7.386;2023-04-05T04:45:25;22.90;;;10.30;;
79308;SDS011;68767;53.078;7.386;2023-04-05T04:47:52;23.58;;;9.55;;
79308;SDS011;68767;53.078;7.386;2023-04-05T04:50:21;25.85;;;10.38;;
79308;SDS011;68767;53.078;7.386;2023-04-05T04:52:48;20.52;;;9.07;;
79308;SDS011;68767;53.078;7.386;2023-04-05T04:55:14;20.67;;;10.18;;
79308;SDS011;68767;53.078;7.386;2023-04-05T04:57:42;21.48;;;9.23;;
79308;SDS011;68767;53.078;7.386;2023-04-05T05:00:09;16.90;;;8.68;;
79308;SDS011;68767;53.078;7.386;2023-04-05T05:02:39;19.17;;;9.60;;
79308;SDS011;68767;53.078;7.386;2023-04-05T05:05:06;19.52;;;9.15;;
79308;SDS011;68767;53.078;7.386;2023-04-05T05:07:34;27.30;;;10.70;;
79308;SDS011;68767;53.078;7.386;2023-04-05T05:10:02;16.75;;;9.13;;
79308;SDS011;68767;53.078;7.386;2023-04-05T05:12:29;23.48;;;10.05;;
79308;SDS011;68767;53.078;7.386;2023-04-05T05:14:57;25.48;;;9.75;;
79308;SDS011;68767;53.078;7.386;2023-04-05T05:17:23;21.33;;;9.63;;
79308;SDS011;68767;53.078;7.386;2023-04-05T05:19:51;20.00;;;10.07;;
79308;SDS011;68767;53.078;7.386;2023-04-05T05:22:20;20.65;;;9.15;;
79308;SDS011;68767;53.078;7.386;2023-04-05T05:24:47;25.23;;;10.32;;
79308;SDS011;68767;53.078;7.386;2023-04-05T05:27:14;19.77;;;9.95;;
79308;SDS011;68767;53.078;7.386;2023-04-05T05:29:41;21.00;;;10.20;;
79308;SDS011;68767;53.078;7.386;2023-04-05T05:32:07;21.75;;;10.13;;
79308;SDS011;68767;53.078;7.386;2023-04-05T05:34:34;20.13;;;10.32;;
79308;SDS011;68767;53.078;7.386;2023-04-05T05:37:02;21.67;;;11.23;;
79308;SDS011;68767;53.078;7.386;2023-04-05T05:39:28;17.80;;;9.23;;
79308;SDS011;68767;53.078;7.386;2023-04-05T05:41:55;17.40;;;9.45;;
79308;SDS011;68767;53.078;7.386;2023-04-05T05:44:22;20.90;;;9.35;;
79308;SDS011;68767;53.078;7.386;2023-04-05T05:46:48;19.92;;;10.15;;
79308;SDS011;68767;53.078;7.386;2023-04-05T05:49:15;18.17;;;9.88;;
79308;SDS011;68767;53.078;7.386;2023-04-05T05:51:42;19.25;;;9.25;;
79308;SDS011;68767;53.078;7.386;2023-04-05T05:54:09;23.65;;;9.73;;
79308;SDS011;68767;53.078;7.386;2023-04-05T05:56:36;18.55;;;9.18;;
79308;SDS011;68767;53.078;7.386;2023-04-05T05:59:03;19.63;;;9.55;;
79308;SDS011;68767;53.078;7.386;2023-04-05T06:01:30;22.25;;;10.00;;
79308;SDS011;68767;53.078;7.386;2023-04-05T06:03:59;20.08;;;9.10;;
79308;SDS011;68767;53.078;7.386;2023-04-05T06:06:26;17.63;;;8.50;;
79308;SDS011;68767;53.078;7.386;2023-04-05T06:08:55;18.38;;;8.25;;
79308;SDS011;68767;53.078;7.386;2023-04-05T06:11:22;19.58;;;8.77;;
79308;SDS011;68767;53.078;7.386;2023-04-05T06:13:49;22.20;;;8.80;;
79308;SDS011;68767;53.078;7.386;2023-04-05T06:16:20;18.00;;;8.27;;
79308;SDS011;68767;53.078;7.386;2023-04-05T06:18:47;18.65;;;8.57;;
79308;SDS011;68767;53.078;7.386;2023-04-05T06:21:14;17.23;;;8.32;;
79308;SDS011;68767;53.078;7.386;2023-04-05T06:23:41;23.50;;;8.95;;
79308;SDS011;68767;53.078;7.386;2023-04-05T06:26:08;17.02;;;8.52;;
79308;SDS011;68767;53.078;7.386;2023-04-05T06:28:42;14.48;;;7.65;;
79308;SDS011;68767;53.078;7.386;2023-04-05T06:31:08;14.05;;;7.07;;
79308;SDS011;68767;53.078;7.386;2023-04-05T06:33:36;13.70;;;6.78;;
79308;SDS011;68767;53.078;7.386;2023-04-05T06:36:03;13.00;;;6.82;;
79308;SDS011;68767;53.078;7.386;2023-04-05T06:38:30;12.43;;;6.90;;
79308;SDS011;68767;53.078;7.386;2023-04-05T06:40:57;14.05;;;6.72;;
79308;SDS011;68767;53.078;7.386;2023-04-05T06:43:23;12.95;;;6.80;;
79308;SDS011;68767;53.078;7.386;2023-04-05T06:45:50;23.58;;;7.25;;
79308;SDS011;68767;53.078;7.386;2023-04-05T06:48:17;12.85;;;6.35;;
79308;SDS011;68767;53.078;7.386;2023-04-05T06:50:44;14.20;;;6.50;;
79308;SDS011;68767;53.078;7.386;2023-04-05T06:53:10;19.00;;;6.90;;
79308;SDS011;68767;53.078;7.386;2023-04-05T06:55:39;14.73;;;6.10;;
79308;SDS011;68767;53.078;7.386;2023-04-05T06:58:10;14.07;;;6.00;;
79308;SDS011;68767;53.078;7.386;2023-04-05T07:00:37;13.15;;;5.35;;
79308;SDS011;68767;53.078;7.386;2023-04-05T07:03:04;11.30;;;5.18;;
79308;SDS011;68767;53.078;7.386;2023-04-05T07:05:31;10.75;;;5.47;;
79308;SDS011;68767;53.078;7.386;2023-04-05T07:07:58;15.45;;;5.72;;
79308;SDS011;68767;53.078;7.386;2023-04-05T07:10:25;10.68;;;5.28;;
79308;SDS011;68767;53.078;7.386;2023-04-05T07:12:52;12.05;;;5.35;;
79308;SDS011;68767;53.078;7.386;2023-04-05T07:15:18;13.55;;;5.47;;
79308;SDS011;68767;53.078;7.386;2023-04-05T07:17:45;12.32;;;5.47;;
79308;SDS011;68767;53.078;7.386;2023-04-05T07:20:12;12.77;;;6.30;;
79308;SDS011;68767;53.078;7.386;2023-04-05T07:22:39;12.25;;;5.22;;
79308;SDS011;68767;53.078;7.386;2023-04-05T07:25:06;9.02;;;5.13;;
79308;SDS011;68767;53.078;7.386;2023-04-05T07:27:35;10.48;;;4.95;;
79308;SDS011;68767;53.078;7.386;2023-04-05T07:30:01;16.10;;;5.45;;
79308;SDS011;68767;53.078;7.386;2023-04-05T07:32:28;10.15;;;4.97;;
79308;SDS011;68767;53.078;7.386;2023-04-05T07:34:55;9.70;;;5.28;;
79308;SDS011;68767;53.078;7.386;2023-04-05T07:37:22;9.18;;;4.40;;
79308;SDS011;68767;53.078;7.386;2023-04-05T07:39:48;9.38;;;3.85;;
79308;SDS011;68767;53.078;7.386;2023-04-05T07:42:15;8.73;;;4.95;;
79308;SDS011;68767;53.078;7.386;2023-04-05T07:44:43;10.15;;;4.90;;
79308;SDS011;68767;53.078;7.386;2023-04-05T07:47:09;13.27;;;5.13;;
79308;SDS011;68767;53.078;7.386;2023-04-05T07:49:36;9.77;;;4.28;;
79308;SDS011;68767;53.078;7.386;2023-04-05T07:52:03;9.98;;;4.25;;
79308;SDS011;68767;53.078;7.386;2023-04-05T07:54:30;8.30;;;4.20;;
79308;SDS011;68767;53.078;7.386;2023-04-05T07:57:00;11.52;;;4.03;;
79308;SDS011;68767;53.078;7.386;2023-04-05T07:59:28;8.60;;;4.55;;
79308;SDS011;68767;53.078;7.386;2023-04-05T08:01:54;7.05;;;4.13;;
79308;SDS011;68767;53.078;7.386;2023-04-05T08:04:27;12.40;;;4.43;;
79308;SDS011;68767;53.078;7.386;2023-04-05T08:06:53;9.38;;;4.18;;
79308;SDS011;68767;53.078;7.386;2023-04-05T08:09:20;10.88;;;4.15;;
79308;SDS011;68767;53.078;7.386;2023-04-05T08:11:47;9.57;;;4.78;;
79308;SDS011;68767;53.078;7.386;2023-04-05T08:14:14;9.27;;;4.10;;
79308;SDS011;68767;53.078;7.386;2023-04-05T08:16:41;8.85;;;3.78;;
79308;SDS011;68767;53.078;7.386;2023-04-05T08:19:09;12.23;;;4.28;;
79308;SDS011;68767;53.078;7.386;2023-04-05T08:21:36;9.07;;;3.92;;
79308;SDS011;68767;53.078;7.386;2023-04-05T08:24:02;9.85;;;3.75;;
79308;SDS011;68767;53.078;7.386;2023-04-05T08:26:29;10.82;;;3.67;;
79308;SDS011;68767;53.078;7.386;2023-04-05T08:28:56;8.88;;;3.25;;
79308;SDS011;68767;53.078;7.386;2023-04-05T08:31:23;7.55;;;4.07;;
79308;SDS011;68767;53.078;7.386;2023-04-05T08:33:49;10.68;;;3.72;;
79308;SDS011;68767;53.078;7.386;2023-04-05T08:36:16;7.63;;;3.65;;
79308;SDS011;68767;53.078;7.386;2023-04-05T08:38:43;7.40;;;3.25;;
79308;SDS011;68767;53.078;7.386;2023-04-05T08:41:20;8.15;;;3.03;;
79308;SDS011;68767;53.078;7.386;2023-04-05T08:44:02;9.57;;;3.25;;
79308;SDS011;68767;53.078;7.386;2023-04-05T08:46:34;8.30;;;3.30;;
79308;SDS011;68767;53.078;7.386;2023-04-05T08:49:04;7.50;;;2.92;;
79308;SDS011;68767;53.078;7.386;2023-04-05T08:51:37;9.30;;;2.75;;
79308;SDS011;68767;53.078;7.386;2023-04-05T08:54:06;6.70;;;3.35;;
79308;SDS011;68767;53.078;7.386;2023-04-05T08:56:34;7.80;;;2.80;;
79308;SDS011;68767;53.078;7.386;2023-04-05T09:01:35;7.20;;;3.42;;
79308;SDS011;68767;53.078;7.386;2023-04-05T09:04:05;5.95;;;2.53;;
79308;SDS011;68767;53.078;7.386;2023-04-05T09:06:34;5.50;;;2.30;;
79308;SDS011;68767;53.078;7.386;2023-04-05T09:09:02;10.57;;;2.95;;
79308;SDS011;68767;53.078;7.386;2023-04-05T09:11:32;8.65;;;2.80;;
79308;SDS011;68767;53.078;7.386;2023-04-05T09:14:01;5.90;;;2.30;;
79308;SDS011;68767;53.078;7.386;2023-04-05T09:16:37;5.38;;;2.72;;
79308;SDS011;68767;53.078;7.386;2023-04-05T09:19:05;8.57;;;3.58;;
79308;SDS011;68767;53.078;7.386;2023-04-05T09:24:44;4.90;;;2.35;;
79308;SDS011;68767;53.078;7.386;2023-04-05T09:27:13;8.98;;;2.67;;
79308;SDS011;68767;53.078;7.386;2023-04-05T09:29:44;6.93;;;2.70;;
79308;SDS011;68767;53.078;7.386;2023-04-05T09:32:13;5.63;;;2.55;;
79308;SDS011;68767;53.078;7.386;2023-04-05T09:34:41;8.27;;;2.70;;
79308;SDS011;68767;53.078;7.386;2023-04-05T09:39:43;6.65;;;2.60;;
79308;SDS011;68767;53.078;7.386;2023-04-05T09:42:14;6.22;;;3.35;;
79308;SDS011;68767;53.078;7.386;2023-04-05T09:44:58;7.68;;;3.33;;
79308;SDS011;68767;53.078;7.386;2023-04-05T09:47:31;8.45;;;3.28;;
79308;SDS011;68767;53.078;7.386;2023-04-05T09:50:02;7.07;;;2.90;;
79308;SDS011;68767;53.078;7.386;2023-04-05T09:52:42;8.77;;;3.40;;
79308;SDS011;68767;53.078;7.386;2023-04-05T09:55:09;9.13;;;4.03;;
79308;SDS011;68767;53.078;7.386;2023-04-05T09:57:37;7.63;;;3.55;;
79308;SDS011;68767;53.078;7.386;2023-04-05T10:00:16;11.77;;;3.83;;
79308;SDS011;68767;53.078;7.386;2023-04-05T10:02:44;8.18;;;3.75;;
79308;SDS011;68767;53.078;7.386;2023-04-05T10:05:17;8.52;;;3.85;;
79308;SDS011;68767;53.078;7.386;2023-04-05T10:07:44;5.75;;;2.25;;
79308;SDS011;68767;53.078;7.386;2023-04-05T10:10:11;7.03;;;3.15;;
79308;SDS011;68767;53.078;7.386;2023-04-05T10:12:39;6.57;;;2.88;;
79308;SDS011;68767;53.078;7.386;2023-04-05T10:15:07;7.78;;;3.35;;
79308;SDS011;68767;53.078;7.386;2023-04-05T10:20:29;6.28;;;2.90;;
79308;SDS011;68767;53.078;7.386;2023-04-05T10:25:42;5.40;;;2.58;;
79308;SDS011;68767;53.078;7.386;2023-04-05T10:28:32;7.03;;;3.00;;
79308;SDS011;68767;53.078;7.386;2023-04-05T10:33:44;7.57;;;3.38;;
79308;SDS011;68767;53.078;7.386;2023-04-05T10:41:52;7.53;;;3.10;;
79308;SDS011;68767;53.078;7.386;2023-04-05T10:44:23;7.15;;;3.15;;
79308;SDS011;68767;53.078;7.386;2023-04-05T10:46:52;9.48;;;2.97;;
79308;SDS011;68767;53.078;7.386;2023-04-05T10:51:57;5.88;;;2.92;;
79308;SDS011;68767;53.078;7.386;2023-04-05T10:54:25;6.65;;;3.17;;
79308;SDS011;68767;53.078;7.386;2023-04-05T10:56:52;7.07;;;3.13;;
79308;SDS011;68767;53.078;7.386;2023-04-05T10:59:19;7.20;;;3.38;;
79308;SDS011;68767;53.078;7.386;2023-04-05T11:01:47;10.38;;;3.60;;
79308;SDS011;68767;53.078;7.386;2023-04-05T11:04:15;4.95;;;2.65;;
79308;SDS011;68767;53.078;7.386;2023-04-05T11:06:42;9.05;;;3.60;;
79308;SDS011;68767;53.078;7.386;2023-04-05T11:11:44;6.75;;;3.30;;
79308;SDS011;68767;53.078;7.386;2023-04-05T11:16:50;10.52;;;3.28;;
79308;SDS011;68767;53.078;7.386;2023-04-05T11:22:08;8.80;;;3.47;;
79308;SDS011;68767;53.078;7.386;2023-04-05T11:27:32;9.88;;;3.30;;
79308;SDS011;68767;53.078;7.386;2023-04-05T11:30:03;4.13;;;2.20;;
79308;SDS011;68767;53.078;7.386;2023-04-05T11:32:41;7.82;;;3.03;;
79308;SDS011;68767;53.078;7.386;2023-04-05T11:35:16;7.70;;;3.15;;
79308;SDS011;68767;53.078;7.386;2023-04-05T11:40:30;6.22;;;3.33;;
79308;SDS011;68767;53.078;7.386;2023-04-05T11:45:28;6.90;;;2.97;;
79308;SDS011;68767;53.078;7.386;2023-04-05T11:48:04;7.50;;;2.70;;
79308;SDS011;68767;53.078;7.386;2023-04-05T11:50:32;7.82;;;3.22;;
79308;SDS011;68767;53.078;7.386;2023-04-05T11:53:06;6.90;;;3.63;;
79308;SDS011;68767;53.078;7.386;2023-04-05T11:55:46;6.18;;;2.65;;
79308;SDS011;68767;53.078;7.386;2023-04-05T11:58:17;8.32;;;3.17;;
79308;SDS011;68767;53.078;7.386;2023-04-05T12:00:56;9.30;;;2.35;;
79308;SDS011;68767;53.078;7.386;2023-04-05T12:03:25;6.75;;;2.80;;
79308;SDS011;68767;53.078;7.386;2023-04-05T12:05:55;6.03;;;3.20;;
79308;SDS011;68767;53.078;7.386;2023-04-05T12:08:23;6.53;;;3.28;;
79308;SDS011;68767;53.078;7.386;2023-04-05T12:11:05;5.85;;;2.90;;
79308;SDS011;68767;53.078;7.386;2023-04-05T12:13:32;6.78;;;2.65;;
79308;SDS011;68767;53.078;7.386;2023-04-05T12:16:03;6.55;;;2.88;;
79308;SDS011;68767;53.078;7.386;2023-04-05T12:18:33;10.50;;;3.20;;
79308;SDS011;68767;53.078;7.386;2023-04-05T12:21:04;7.05;;;2.90;;
79308;SDS011;68767;53.078;7.386;2023-04-05T12:23:34;5.78;;;2.03;;
79308;SDS011;68767;53.078;7.386;2023-04-05T12:26:02;7.65;;;2.50;;
79308;SDS011;68767;53.078;7.386;2023-04-05T12:34:01;5.55;;;2.92;;
79308;SDS011;68767;53.078;7.386;2023-04-05T12:36:28;6.78;;;2.70;;
79308;SDS011;68767;53.078;7.386;2023-04-05T12:38:59;6.38;;;2.70;;
79308;SDS011;68767;53.078;7.386;2023-04-05T12:41:27;8.43;;;2.72;;
79308;SDS011;68767;53.078;7.386;2023-04-05T12:43:58;5.30;;;2.75;;
79308;SDS011;68767;53.078;7.386;2023-04-05T12:46:39;6.22;;;3.05;;
79308;SDS011;68767;53.078;7.386;2023-04-05T12:49:09;6.10;;;2.90;;
79308;SDS011;68767;53.078;7.386;2023-04-05T12:51:41;5.07;;;2.60;;
79308;SDS011;68767;53.078;7.386;2023-04-05T12:54:21;5.82;;;2.80;;
79308;SDS011;68767;53.078;7.386;2023-04-05T12:56:49;7.68;;;2.72;;
79308;SDS011;68767;53.078;7.386;2023-04-05T12:59:18;5.70;;;3.15;;
79308;SDS011;68767;53.078;7.386;2023-04-05T13:01:45;8.15;;;3.30;;
79308;SDS011;68767;53.078;7.386;2023-04-05T13:04:12;5.82;;;2.88;;
79308;SDS011;68767;53.078;7.386;2023-04-05T13:06:42;6.93;;;2.70;;
79308;SDS011;68767;53.078;7.386;2023-04-05T13:09:09;8.32;;;3.35;;
79308;SDS011;68767;53.078;7.386;2023-04-05T13:11:36;6.75;;;3.40;;
79308;SDS011;68767;53.078;7.386;2023-04-05T13:14:02;19.55;;;8.80;;
79308;SDS011;68767;53.078;7.386;2023-04-05T13:16:29;8.82;;;3.35;;
79308;SDS011;68767;53.078;7.386;2023-04-05T13:18:56;7.28;;;2.90;;
79308;SDS011;68767;53.078;7.386;2023-04-05T13:21:23;5.03;;;2.17;;
79308;SDS011;68767;53.078;7.386;2023-04-05T13:23:49;19.33;;;8.80;;
79308;SDS011;68767;53.078;7.386;2023-04-05T13:26:16;11.05;;;4.63;;
79308;SDS011;68767;53.078;7.386;2023-04-05T13:28:43;4.93;;;2.60;;
79308;SDS011;68767;53.078;7.386;2023-04-05T13:31:09;8.20;;;3.08;;
79308;SDS011;68767;53.078;7.386;2023-04-05T13:33:40;6.40;;;2.58;;
79308;SDS011;68767;53.078;7.386;2023-04-05T13:36:07;6.50;;;2.58;;
79308;SDS011;68767;53.078;7.386;2023-04-05T13:38:34;7.88;;;2.80;;
79308;SDS011;68767;53.078;7.386;2023-04-05T13:41:00;5.80;;;2.60;;
79308;SDS011;68767;53.078;7.386;2023-04-05T13:43:27;6.78;;;2.63;;
79308;SDS011;68767;53.078;7.386;2023-04-05T13:45:56;7.05;;;2.80;;
79308;SDS011;68767;53.078;7.386;2023-04-05T13:48:23;5.90;;;2.60;;
79308;SDS011;68767;53.078;7.386;2023-04-05T13:50:50;7.22;;;2.65;;
79308;SDS011;68767;53.078;7.386;2023-04-05T13:53:16;5.40;;;2.45;;
79308;SDS011;68767;53.078;7.386;2023-04-05T13:55:43;4.75;;;2.22;;
79308;SDS011;68767;53.078;7.386;2023-04-05T13:58:10;8.25;;;2.63;;
79308;SDS011;68767;53.078;7.386;2023-04-05T14:00:37;4.70;;;2.53;;
79308;SDS011;68767;53.078;7.386;2023-04-05T14:03:05;5.40;;;2.60;;
79308;SDS011;68767;53.078;7.386;2023-04-05T14:05:32;7.30;;;2.78;;
79308;SDS011;68767;53.078;7.386;2023-04-05T14:07:59;5.10;;;2.60;;
79308;SDS011;68767;53.078;7.386;2023-04-05T14:10:26;8.57;;;2.90;;
79308;SDS011;68767;53.078;7.386;2023-04-05T14:12:52;5.38;;;2.42;;
79308;SDS011;68767;53.078;7.386;2023-04-05T14:15:19;8.23;;;3.03;;
79308;SDS011;68767;53.078;7.386;2023-04-05T14:17:46;6.10;;;2.60;;
79308;SDS011;68767;53.078;7.386;2023-04-05T14:20:13;4.13;;;2.45;;
79308;SDS011;68767;53.078;7.386;2023-04-05T14:22:39;5.85;;;2.63;;
79308;SDS011;68767;53.078;7.386;2023-04-05T14:25:06;8.15;;;2.90;;
79308;SDS011;68767;53.078;7.386;2023-04-05T14:27:33;4.30;;;2.70;;
79308;SDS011;68767;53.078;7.386;2023-04-05T14:30:03;6.85;;;3.10;;
79308;SDS011;68767;53.078;7.386;2023-04-05T14:32:30;4.75;;;2.97;;
79308;SDS011;68767;53.078;7.386;2023-04-05T14:34:59;5.78;;;2.70;;
79308;SDS011;68767;53.078;7.386;2023-04-05T14:37:26;6.53;;;2.75;;
79308;SDS011;68767;53.078;7.386;2023-04-05T14:39:52;6.88;;;2.95;;
79308;SDS011;68767;53.078;7.386;2023-04-05T14:42:19;9.68;;;3.72;;
79308;SDS011;68767;53.078;7.386;2023-04-05T14:44:47;6.10;;;2.70;;
79308;SDS011;68767;53.078;7.386;2023-04-05T14:47:13;5.85;;;2.78;;
79308;SDS011;68767;53.078;7.386;2023-04-05T14:49:40;4.97;;;2.63;;
79308;SDS011;68767;53.078;7.386;2023-04-05T14:52:07;8.25;;;2.92;;
79308;SDS011;68767;53.078;7.386;2023-04-05T14:54:34;7.95;;;2.78;;
79308;SDS011;68767;53.078;7.386;2023-04-05T14:57:01;5.95;;;2.63;;
79308;SDS011;68767;53.078;7.386;2023-04-05T14:59:28;6.20;;;2.90;;
79308;SDS011;68767;53.078;7.386;2023-04-05T15:01:55;7.13;;;2.97;;
79308;SDS011;68767;53.078;7.386;2023-04-05T15:04:22;5.00;;;2.50;;
79308;SDS011;68767;53.078;7.386;2023-04-05T15:06:48;4.95;;;2.67;;
79308;SDS011;68767;53.078;7.386;2023-04-05T15:09:15;6.80;;;2.78;;
79308;SDS011;68767;53.078;7.386;2023-04-05T15:11:43;11.40;;;3.35;;
79308;SDS011;68767;53.078;7.386;2023-04-05T15:14:09;6.50;;;2.65;;
79308;SDS011;68767;53.078;7.386;2023-04-05T15:16:56;5.22;;;2.92;;
79308;SDS011;68767;53.078;7.386;2023-04-05T15:19:22;5.95;;;2.97;;
79308;SDS011;68767;53.078;7.386;2023-04-05T15:21:49;5.38;;;2.70;;
79308;SDS011;68767;53.078;7.386;2023-04-05T15:24:16;5.72;;;2.95;;
79308;SDS011;68767;53.078;7.386;2023-04-05T15:26:43;7.15;;;2.70;;
79308;SDS011;68767;53.078;7.386;2023-04-05T15:29:10;6.88;;;3.20;;
79308;SDS011;68767;53.078;7.386;2023-04-05T15:31:36;6.40;;;2.90;;
79308;SDS011;68767;53.078;7.386;2023-04-05T15:34:03;6.38;;;2.60;;
79308;SDS011;68767;53.078;7.386;2023-04-05T15:36:33;6.45;;;3.40;;
79308;SDS011;68767;53.078;7.386;2023-04-05T15:39:01;7.53;;;2.85;;
79308;SDS011;68767;53.078;7.386;2023-04-05T15:41:33;7.43;;;2.83;;
79308;SDS011;68767;53.078;7.386;2023-04-05T15:44:00;5.53;;;2.90;;
79308;SDS011;68767;53.078;7.386;2023-04-05T15:46:28;5.82;;;2.90;;
79308;SDS011;68767;53.078;7.386;2023-04-05T15:48:55;10.70;;;2.90;;
79308;SDS011;68767;53.078;7.386;2023-04-05T15:51:22;6.75;;;3.15;;
79308;SDS011;68767;53.078;7.386;2023-04-05T15:53:48;7.45;;;2.92;;